createdAt,value
2024-02-11T00:01:50.366Z,17.60
2024-02-11T00:04:18.030Z,24.73
2024-02-11T00:06:46.661Z,21.05
2024-02-11T00:09:14.712Z,20.77
2024-02-11T00:11:42.416Z,22.35
2024-02-11T00:14:11.521Z,20.52
2024-02-11T00:16:39.145Z,21.33
2024-02-11T00:19:07.793Z,21.15
2024-02-11T00:21:35.969Z,21.67
2024-02-11T00:24:03.643Z,19.13
2024-02-11T00:26:31.339Z,19.88
2024-02-11T00:28:59.221Z,21.67
2024-02-11T00:31:28.604Z,18.52
2024-02-11T00:33:57.554Z,21.70
2024-02-11T00:36:25.294Z,18.70
2024-02-11T00:38:55.193Z,20.67
2024-02-11T00:41:22.943Z,19.52
2024-02-11T00:43:51.469Z,19.90
2024-02-11T00:46:19.277Z,21.95
2024-02-11T00:48:48.464Z,20.92
2024-02-11T00:51:16.918Z,21.15
2024-02-11T00:53:46.797Z,18.75
2024-02-11T00:58:42.925Z,22.45
2024-02-11T01:01:10.629Z,24.02
2024-02-11T01:03:38.645Z,22.23
2024-02-11T01:06:07.692Z,23.55
2024-02-11T01:08:35.361Z,20.92
2024-02-11T01:11:03.011Z,25.52
2024-02-11T01:13:30.742Z,21.25
2024-02-11T01:15:58.409Z,24.30
2024-02-11T01:18:26.073Z,22.08
2024-02-11T01:20:55.089Z,20.70
2024-02-11T01:23:24.014Z,19.75
2024-02-11T01:25:53.132Z,25.88
2024-02-11T01:28:20.815Z,21.88
2024-02-11T01:30:49.682Z,21.95
2024-02-11T01:33:17.512Z,20.38
2024-02-11T01:35:45.267Z,23.45
2024-02-11T01:38:13.053Z,18.02
2024-02-11T01:40:43.212Z,18.73
2024-02-11T01:43:11.890Z,20.92
2024-02-11T01:45:39.684Z,18.92
2024-02-11T01:48:10.609Z,22.63
2024-02-11T01:50:39.077Z,25.60
2024-02-11T01:53:08.083Z,24.38
2024-02-11T01:55:36.405Z,20.63
2024-02-11T01:58:06.788Z,24.08
2024-02-11T02:00:35.129Z,22.10
2024-02-11T02:03:03.711Z,24.25
2024-02-11T02:05:31.568Z,21.33
2024-02-11T02:08:00.386Z,21.02
2024-02-11T02:10:28.169Z,23.00
2024-02-11T02:12:55.949Z,24.35
2024-02-11T02:15:25.825Z,26.88
2024-02-11T02:20:21.608Z,23.63
2024-02-11T02:22:50.865Z,28.73
2024-02-11T02:25:18.833Z,24.38
2024-02-11T02:27:47.330Z,33.97
2024-02-11T02:30:16.535Z,25.15
2024-02-11T02:32:45.482Z,26.65
2024-02-11T02:35:22.888Z,25.67
2024-02-11T02:37:54.288Z,25.73
2024-02-11T02:40:25.780Z,24.00
2024-02-11T02:42:53.587Z,26.52
2024-02-11T02:45:21.230Z,26.40
2024-02-11T02:47:48.850Z,29.67
2024-02-11T02:50:17.145Z,29.10
2024-02-11T02:52:45.561Z,22.30
2024-02-11T02:55:14.917Z,43.20
2024-02-11T02:57:42.491Z,27.08
2024-02-11T03:00:12.303Z,23.02
2024-02-11T03:02:45.387Z,22.33
2024-02-11T03:05:13.308Z,23.08
2024-02-11T03:07:41.700Z,20.70
2024-02-11T03:10:09.728Z,22.38
2024-02-11T03:12:38.648Z,21.75
2024-02-11T03:15:08.383Z,36.17
2024-02-11T03:17:36.148Z,23.85
2024-02-11T03:20:04.089Z,20.95
2024-02-11T03:22:31.833Z,22.98
2024-02-11T03:25:00.158Z,24.38
2024-02-11T03:27:27.799Z,25.08
2024-02-11T03:29:56.721Z,23.45
2024-02-11T03:32:24.367Z,21.75
2024-02-11T03:34:52.035Z,21.40
2024-02-11T03:37:19.713Z,19.65
2024-02-11T03:39:50.907Z,22.13
2024-02-11T03:42:20.908Z,27.77
2024-02-11T03:44:48.513Z,24.88
2024-02-11T03:47:17.638Z,25.25
2024-02-11T03:49:45.381Z,22.17
2024-02-11T03:52:16.930Z,21.55
2024-02-11T03:54:44.600Z,25.30
2024-02-11T03:57:12.603Z,21.38
2024-02-11T03:59:40.215Z,23.67
2024-02-11T04:02:07.944Z,25.88
2024-02-11T04:04:36.962Z,23.25
2024-02-11T04:07:04.958Z,22.80
2024-02-11T04:09:34.389Z,20.05
2024-02-11T04:12:02.215Z,21.55
2024-02-11T04:14:29.809Z,18.80
2024-02-11T04:16:58.871Z,20.42
2024-02-11T04:19:26.765Z,18.27
2024-02-11T04:21:55.703Z,20.65
2024-02-11T04:24:24.419Z,20.08
2024-02-11T04:26:54.800Z,23.33
2024-02-11T04:29:23.237Z,22.40
2024-02-11T04:31:52.245Z,24.25
2024-02-11T04:34:23.312Z,20.90
2024-02-11T04:36:51.080Z,21.75
2024-02-11T04:39:20.282Z,20.60
2024-02-11T04:41:47.983Z,18.52
2024-02-11T04:44:16.754Z,22.05
2024-02-11T04:46:44.585Z,19.67
2024-02-11T04:49:13.505Z,19.02
2024-02-11T04:51:41.769Z,20.60
2024-02-11T04:54:09.698Z,18.75
2024-02-11T04:56:39.599Z,16.85
2024-02-11T05:01:37.456Z,19.58
2024-02-11T05:04:06.498Z,20.30
2024-02-11T05:06:34.181Z,18.75
2024-02-11T05:09:02.193Z,16.40
2024-02-11T05:11:30.036Z,20.80
2024-02-11T05:14:00.798Z,17.30
2024-02-11T05:16:29.480Z,17.92
2024-02-11T05:18:57.360Z,19.60
2024-02-11T05:21:25.430Z,18.42
2024-02-11T05:23:53.099Z,24.58
2024-02-11T05:26:22.677Z,25.50
2024-02-11T05:31:22.742Z,24.67
2024-02-11T05:33:50.694Z,25.63
2024-02-11T05:36:19.492Z,22.05
2024-02-11T05:38:48.626Z,23.38
2024-02-11T05:41:16.371Z,24.10
2024-02-11T05:43:44.158Z,23.75
2024-02-11T05:46:11.806Z,22.80
2024-02-11T05:48:40.773Z,24.20
2024-02-11T05:51:08.526Z,27.13
2024-02-11T05:53:36.530Z,23.10
2024-02-11T05:56:05.846Z,21.98
2024-02-11T05:58:33.841Z,25.05
2024-02-11T06:01:01.518Z,24.33
2024-02-11T06:03:29.130Z,25.15
2024-02-11T06:05:58.085Z,20.38
2024-02-11T06:08:25.738Z,24.58
2024-02-11T06:10:53.590Z,24.98
2024-02-11T06:13:21.309Z,23.42
2024-02-11T06:15:49.327Z,26.80
2024-02-11T06:18:19.174Z,24.77
2024-02-11T06:23:16.729Z,22.17
2024-02-11T06:25:45.577Z,22.38
2024-02-11T06:28:13.360Z,18.33
2024-02-11T06:30:41.670Z,24.25
2024-02-11T06:33:11.315Z,26.63
2024-02-11T06:38:08.667Z,22.38
2024-02-11T06:40:37.889Z,19.15
2024-02-11T06:43:12.396Z,21.90
2024-02-11T06:45:41.903Z,26.42
2024-02-11T06:48:10.521Z,27.92
2024-02-11T06:50:38.175Z,23.80
2024-02-11T06:53:08.756Z,23.02
2024-02-11T06:55:37.862Z,29.70
2024-02-11T06:58:06.623Z,28.60
2024-02-11T07:00:34.650Z,37.63
2024-02-11T07:03:04.383Z,52.70
2024-02-11T07:05:32.887Z,40.47
2024-02-11T07:08:01.842Z,29.88
2024-02-11T07:10:30.635Z,24.90
2024-02-11T07:12:59.662Z,21.27
2024-02-11T07:15:27.366Z,18.70
2024-02-11T07:17:55.180Z,22.02
2024-02-11T07:20:23.643Z,18.60
2024-02-11T07:22:51.588Z,19.00
2024-02-11T07:25:19.752Z,17.90
2024-02-11T07:27:47.567Z,18.98
2024-02-11T07:30:17.151Z,21.58
2024-02-11T07:32:47.077Z,20.20
2024-02-11T07:35:17.049Z,19.52
2024-02-11T07:37:45.555Z,22.00
2024-02-11T07:40:16.051Z,18.55
2024-02-11T07:42:44.379Z,20.17
2024-02-11T07:45:16.846Z,22.25
2024-02-11T07:47:48.969Z,23.95
2024-02-11T07:50:17.871Z,24.25
2024-02-11T07:52:46.298Z,27.52
2024-02-11T07:55:14.483Z,36.00
2024-02-11T07:57:42.230Z,43.90
2024-02-11T08:00:11.309Z,37.08
2024-02-11T08:02:38.932Z,30.23
2024-02-11T08:05:11.991Z,20.73
2024-02-11T08:07:40.554Z,23.30
2024-02-11T08:10:09.406Z,30.42
2024-02-11T08:12:37.132Z,20.27
2024-02-11T08:15:04.416Z,26.33
2024-02-11T08:17:32.299Z,16.63
2024-02-11T08:20:00.050Z,8.98
2024-02-11T08:22:28.975Z,5.20
2024-02-11T08:24:57.152Z,2.92
2024-02-11T08:27:24.736Z,2.28
2024-02-11T08:29:53.334Z,1.83
2024-02-11T08:32:22.040Z,1.75
2024-02-11T08:34:50.764Z,1.42
2024-02-11T08:37:18.418Z,1.55
2024-02-11T08:39:47.744Z,1.70
2024-02-11T08:42:15.712Z,1.10
2024-02-11T08:44:43.386Z,0.52
2024-02-11T08:47:11.305Z,1.20
2024-02-11T08:49:38.962Z,1.10
2024-02-11T08:52:06.895Z,1.52
2024-02-11T08:54:35.866Z,1.20
2024-02-11T08:57:05.393Z,1.23
2024-02-11T08:59:33.046Z,1.13
2024-02-11T09:02:01.509Z,0.93
2024-02-11T09:04:29.550Z,2.03
2024-02-11T09:06:58.048Z,1.80
2024-02-11T09:09:28.277Z,0.80
2024-02-11T09:11:57.709Z,0.73
2024-02-11T09:14:28.153Z,1.15
2024-02-11T09:16:58.078Z,1.48
2024-02-11T09:19:27.105Z,1.13
2024-02-11T09:21:55.105Z,1.05
2024-02-11T09:24:23.678Z,1.55
2024-02-11T09:26:52.444Z,1.52
2024-02-11T09:29:21.888Z,1.20
2024-02-11T09:31:51.433Z,1.65
2024-02-11T09:34:19.275Z,1.83
2024-02-11T09:36:46.913Z,2.42
2024-02-11T09:39:14.674Z,1.50
2024-02-11T09:41:42.342Z,1.40
2024-02-11T09:44:12.688Z,2.75
2024-02-11T09:46:42.403Z,1.60
2024-02-11T09:49:15.425Z,1.77
2024-02-11T09:51:43.869Z,2.25
2024-02-11T09:54:11.475Z,1.80
2024-02-11T09:56:39.104Z,1.33
2024-02-11T09:59:06.790Z,1.83
2024-02-11T10:01:35.042Z,1.80
2024-02-11T10:04:04.748Z,3.03
2024-02-11T10:06:36.348Z,2.00
2024-02-11T10:09:05.492Z,4.32
2024-02-11T10:11:33.370Z,2.17
2024-02-11T10:14:01.324Z,1.70
2024-02-11T10:16:29.489Z,2.70
2024-02-11T10:18:58.566Z,1.67
2024-02-11T10:21:26.396Z,1.52
2024-02-11T10:23:56.042Z,1.73
2024-02-11T10:26:23.771Z,1.60
2024-02-11T10:28:51.553Z,1.45
2024-02-11T10:31:19.181Z,2.17
2024-02-11T10:33:46.970Z,1.52
2024-02-11T10:36:14.785Z,1.95
2024-02-11T10:38:42.540Z,2.17
2024-02-11T10:41:13.476Z,1.33
2024-02-11T10:43:41.515Z,2.15
2024-02-11T10:46:09.184Z,3.05
2024-02-11T10:48:36.958Z,6.22
2024-02-11T10:51:11.099Z,5.38
2024-02-11T10:53:39.932Z,6.13
2024-02-11T10:56:11.720Z,3.83
2024-02-11T10:58:44.674Z,16.48
2024-02-11T11:01:13.315Z,8.90
2024-02-11T11:03:41.585Z,7.55
2024-02-11T11:06:10.216Z,20.98
2024-02-11T11:08:39.925Z,10.77
2024-02-11T11:11:07.545Z,13.70
2024-02-11T11:13:38.045Z,14.55
2024-02-11T11:16:06.768Z,8.52
2024-02-11T11:18:37.860Z,2.17
2024-02-11T11:21:09.070Z,8.18
2024-02-11T11:23:38.869Z,2.97
2024-02-11T11:26:11.375Z,3.17
2024-02-11T11:28:42.314Z,2.42
2024-02-11T11:31:09.932Z,2.92
2024-02-11T11:33:37.710Z,3.17
2024-02-11T11:36:06.681Z,3.25
2024-02-11T11:38:34.751Z,3.78
2024-02-11T11:41:03.641Z,4.30
2024-02-11T11:43:33.460Z,2.63
2024-02-11T11:48:36.819Z,2.42
2024-02-11T11:51:08.077Z,2.05
2024-02-11T11:53:35.893Z,1.77
2024-02-11T11:56:04.337Z,3.03
2024-02-11T11:58:32.898Z,2.25
2024-02-11T12:01:02.797Z,4.13
2024-02-11T12:03:31.475Z,2.80
2024-02-11T12:05:59.649Z,2.30
2024-02-11T12:08:28.345Z,2.63
2024-02-11T12:10:57.819Z,2.17
2024-02-11T12:13:26.332Z,1.73
2024-02-11T12:15:56.899Z,2.40
2024-02-11T12:18:26.463Z,1.67
2024-02-11T12:20:55.063Z,1.75
2024-02-11T12:23:24.748Z,2.65
2024-02-11T12:25:57.056Z,1.75
2024-02-11T12:28:26.292Z,1.73
2024-02-11T12:30:55.278Z,3.17
2024-02-11T12:33:23.621Z,1.95
2024-02-11T12:35:52.749Z,3.80
2024-02-11T12:38:22.386Z,2.90
2024-02-11T12:40:50.127Z,1.67
2024-02-11T12:43:17.737Z,4.93
2024-02-11T12:45:45.378Z,2.25
2024-02-11T12:48:13.432Z,2.75
2024-02-11T12:50:41.252Z,2.17
2024-02-11T12:53:10.298Z,2.63
2024-02-11T12:55:37.962Z,3.65
2024-02-11T12:58:06.092Z,2.83
2024-02-11T13:00:34.218Z,3.05
2024-02-11T13:03:02.655Z,2.40
2024-02-11T13:05:30.548Z,3.33
2024-02-11T13:07:58.815Z,2.58
2024-02-11T13:10:27.887Z,3.08
2024-02-11T13:12:56.014Z,5.20
2024-02-11T13:15:23.611Z,6.57
2024-02-11T13:17:51.429Z,6.63
2024-02-11T13:20:19.272Z,2.85
2024-02-11T13:22:50.567Z,3.97
2024-02-11T13:25:20.446Z,9.90
2024-02-11T13:27:49.395Z,7.95
2024-02-11T13:30:18.822Z,6.20
2024-02-11T13:32:46.692Z,3.72
2024-02-11T13:35:14.710Z,2.95
2024-02-11T13:37:42.342Z,2.45
2024-02-11T13:40:13.091Z,3.47
2024-02-11T13:42:41.036Z,5.10
2024-02-11T13:45:13.017Z,2.92
2024-02-11T13:47:41.888Z,2.78
2024-02-11T13:50:11.752Z,3.13
2024-02-11T13:55:11.119Z,2.65
2024-02-11T13:57:38.981Z,4.95
2024-02-11T14:00:08.336Z,3.85
2024-02-11T14:02:37.549Z,3.20
2024-02-11T14:05:05.943Z,2.03
2024-02-11T14:07:33.957Z,4.15
2024-02-11T14:10:01.979Z,3.78
2024-02-11T14:12:30.659Z,4.35
2024-02-11T14:14:58.427Z,4.63
2024-02-11T14:17:27.061Z,3.80
2024-02-11T14:19:56.170Z,3.17
2024-02-11T14:22:24.022Z,3.80
2024-02-11T14:24:51.834Z,5.20
2024-02-11T14:27:19.773Z,2.85
2024-02-11T14:29:47.408Z,5.30
2024-02-11T14:32:17.911Z,3.47
2024-02-11T14:34:45.980Z,4.85
2024-02-11T14:37:15.259Z,4.32
2024-02-11T14:39:42.856Z,3.13
2024-02-11T14:42:10.471Z,3.47
2024-02-11T14:44:38.916Z,4.25
2024-02-11T14:47:07.025Z,3.78
2024-02-11T14:49:34.631Z,4.35
2024-02-11T14:52:03.069Z,2.03
2024-02-11T14:54:32.726Z,5.88
2024-02-11T14:57:00.601Z,3.50
2024-02-11T14:59:29.757Z,4.88
2024-02-11T15:01:57.445Z,2.75
2024-02-11T15:04:27.057Z,3.05
2024-02-11T15:06:58.344Z,2.70
2024-02-11T15:09:26.947Z,2.55
2024-02-11T15:11:55.872Z,3.88
2024-02-11T15:14:23.673Z,3.17
2024-02-11T15:16:51.423Z,4.00
2024-02-11T15:19:19.962Z,4.05
2024-02-11T15:21:48.002Z,3.63
2024-02-11T15:24:15.686Z,3.25
2024-02-11T15:26:43.846Z,2.75
2024-02-11T15:29:13.021Z,3.38
2024-02-11T15:31:42.095Z,3.65
2024-02-11T15:34:10.117Z,3.78
2024-02-11T15:36:37.789Z,4.68
2024-02-11T15:39:07.990Z,4.72
2024-02-11T15:41:37.614Z,3.83
2024-02-11T15:44:06.123Z,3.80
2024-02-11T15:46:35.159Z,3.80
2024-02-11T15:49:05.184Z,3.83
2024-02-11T15:51:32.888Z,4.43
2024-02-11T15:54:00.512Z,4.85
2024-02-11T15:56:28.178Z,3.92
2024-02-11T15:58:55.904Z,4.95
2024-02-11T16:01:25.645Z,5.65
2024-02-11T16:03:54.708Z,5.38
2024-02-11T16:06:22.885Z,4.28
2024-02-11T16:08:51.280Z,6.65
2024-02-11T16:11:19.044Z,5.28
2024-02-11T16:13:48.711Z,7.93
2024-02-11T16:18:44.980Z,6.47
2024-02-11T16:21:15.232Z,4.53
2024-02-11T16:23:44.835Z,7.22
2024-02-11T16:26:15.678Z,6.82
2024-02-11T16:28:43.752Z,11.23
2024-02-11T16:31:13.482Z,7.70
2024-02-11T16:33:41.354Z,5.25
2024-02-11T16:36:10.162Z,5.43
2024-02-11T16:38:39.708Z,7.07
2024-02-11T16:41:08.157Z,8.77
2024-02-11T16:43:35.827Z,8.63
2024-02-11T16:46:03.693Z,9.10
2024-02-11T16:48:35.063Z,8.77
2024-02-11T16:51:04.296Z,7.13
2024-02-11T16:53:32.023Z,5.28
2024-02-11T16:56:01.688Z,5.00
2024-02-11T16:58:29.452Z,6.72
2024-02-11T17:01:03.125Z,4.28
2024-02-11T17:03:30.922Z,5.10
2024-02-11T17:05:58.792Z,6.38
2024-02-11T17:08:27.067Z,6.90
2024-02-11T17:10:54.760Z,7.10
2024-02-11T17:13:23.783Z,7.07
2024-02-11T17:15:52.491Z,6.53
2024-02-11T17:18:20.317Z,4.90
2024-02-11T17:20:55.595Z,5.57
2024-02-11T17:23:30.730Z,7.03
2024-02-11T17:25:58.413Z,7.32
2024-02-11T17:28:28.705Z,13.35
2024-02-11T17:30:56.933Z,8.60
2024-02-11T17:33:25.146Z,8.25
2024-02-11T17:35:53.582Z,8.23
2024-02-11T17:38:22.217Z,14.63
2024-02-11T17:40:49.964Z,7.05
2024-02-11T17:43:18.778Z,7.00
2024-02-11T17:45:49.785Z,7.80
2024-02-11T17:48:17.734Z,13.15
2024-02-11T17:50:46.991Z,12.52
2024-02-11T17:53:15.504Z,8.23
2024-02-11T17:55:43.679Z,10.27
2024-02-11T17:58:12.202Z,11.15
2024-02-11T18:00:49.958Z,8.23
2024-02-11T18:03:27.414Z,8.48
2024-02-11T18:05:56.118Z,8.73
2024-02-11T18:08:24.756Z,10.25
2024-02-11T18:10:52.858Z,9.48
2024-02-11T18:13:21.628Z,10.30
2024-02-11T18:15:50.709Z,9.07
2024-02-11T18:18:19.715Z,10.60
2024-02-11T18:20:48.718Z,8.15
2024-02-11T18:23:16.738Z,9.27
2024-02-11T18:26:01.466Z,11.35
2024-02-11T18:28:32.585Z,10.18
2024-02-11T18:31:00.457Z,10.35
2024-02-11T18:33:28.216Z,10.85
2024-02-11T18:35:57.639Z,8.80
2024-02-11T18:38:25.320Z,8.98
2024-02-11T18:40:53.220Z,8.88
2024-02-11T18:43:21.384Z,8.00
2024-02-11T18:45:49.022Z,8.32
2024-02-11T18:48:17.675Z,7.35
2024-02-11T18:50:45.542Z,7.10
2024-02-11T18:53:15.822Z,5.07
2024-02-11T18:55:44.580Z,5.13
2024-02-11T18:58:12.350Z,6.65
2024-02-11T19:00:41.414Z,6.75
2024-02-11T19:03:09.309Z,11.65
2024-02-11T19:05:38.081Z,7.22
2024-02-11T19:08:10.271Z,8.68
2024-02-11T19:10:39.824Z,7.80
2024-02-11T19:13:09.034Z,6.97
2024-02-11T19:15:36.931Z,7.15
2024-02-11T19:18:05.349Z,7.35
2024-02-11T19:20:33.636Z,10.77
2024-02-11T19:23:03.118Z,13.07
2024-02-11T19:25:31.789Z,48.80
2024-02-11T19:28:00.935Z,40.38
2024-02-11T19:30:29.566Z,63.55
2024-02-11T19:32:57.415Z,55.78
2024-02-11T19:35:25.734Z,14.55
2024-02-11T19:37:53.916Z,10.40
2024-02-11T19:40:21.550Z,8.82
2024-02-11T19:42:50.305Z,6.43
2024-02-11T19:45:19.429Z,5.20
2024-02-11T19:47:49.528Z,7.60
2024-02-11T19:50:17.874Z,5.20
2024-02-11T19:52:46.309Z,4.88
2024-02-11T19:55:14.222Z,5.00
2024-02-11T19:57:42.692Z,5.85
2024-02-11T20:00:13.809Z,5.78
2024-02-11T20:02:43.239Z,5.78
2024-02-11T20:07:42.677Z,7.47
2024-02-11T20:10:11.197Z,7.05
2024-02-11T20:12:39.548Z,6.60
2024-02-11T20:15:09.366Z,6.93
2024-02-11T20:17:37.213Z,9.35
2024-02-11T20:20:14.812Z,7.38
2024-02-11T20:22:43.875Z,8.77
2024-02-11T20:25:11.807Z,10.23
2024-02-11T20:27:40.043Z,6.43
2024-02-11T20:30:09.904Z,6.45
2024-02-11T20:35:07.394Z,5.97
2024-02-11T20:37:38.707Z,7.53
2024-02-11T20:40:08.719Z,4.32
2024-02-11T20:42:37.159Z,4.88
2024-02-11T20:45:06.646Z,6.35
2024-02-11T20:47:34.978Z,9.38
2024-02-11T20:50:07.869Z,4.75
2024-02-11T20:52:38.131Z,5.70
2024-02-11T20:55:06.536Z,6.32
2024-02-11T20:57:36.548Z,6.60
2024-02-11T21:00:11.845Z,5.57
2024-02-11T21:02:40.370Z,4.30
2024-02-11T21:05:10.405Z,4.05
2024-02-11T21:07:39.710Z,8.75
2024-02-11T21:10:07.917Z,4.18
2024-02-11T21:12:35.596Z,6.50
2024-02-11T21:15:04.166Z,4.53
2024-02-11T21:17:32.450Z,8.30
2024-02-11T21:20:00.278Z,4.40
2024-02-11T21:22:28.076Z,6.55
2024-02-11T21:24:57.092Z,6.03
2024-02-11T21:27:26.136Z,6.00
2024-02-11T21:29:53.741Z,8.35
2024-02-11T21:32:21.539Z,12.45
2024-02-11T21:34:49.528Z,8.20
2024-02-11T21:37:17.198Z,5.63
2024-02-11T21:39:45.160Z,7.05
2024-02-11T21:42:16.931Z,7.22
2024-02-11T21:44:44.609Z,5.20
2024-02-11T21:47:12.345Z,8.35
2024-02-11T21:49:40.936Z,5.43
2024-02-11T21:52:10.755Z,8.05
2024-02-11T21:54:38.470Z,6.40
2024-02-11T21:57:07.127Z,6.70
2024-02-11T21:59:38.690Z,10.45
2024-02-11T22:02:06.765Z,8.40
2024-02-11T22:04:34.473Z,6.25
2024-02-11T22:07:02.181Z,6.05
2024-02-11T22:09:29.923Z,5.55
2024-02-11T22:11:57.548Z,6.93
2024-02-11T22:14:25.203Z,7.38
2024-02-11T22:16:56.289Z,7.25
2024-02-11T22:19:24.061Z,9.68
2024-02-11T22:21:51.684Z,6.78
2024-02-11T22:24:20.001Z,6.70
2024-02-11T22:26:48.654Z,8.30
2024-02-11T22:29:16.286Z,6.32
2024-02-11T22:31:45.679Z,6.25
2024-02-11T22:34:14.729Z,6.55
2024-02-11T22:36:42.544Z,7.65
2024-02-11T22:39:11.693Z,8.57
2024-02-11T22:41:39.460Z,8.85
2024-02-11T22:44:07.723Z,7.35
2024-02-11T22:46:35.342Z,10.00
2024-02-11T22:49:03.904Z,7.97
2024-02-11T22:51:33.255Z,8.48
2024-02-11T22:54:00.878Z,7.90
2024-02-11T22:56:28.556Z,8.65
2024-02-11T22:58:56.181Z,9.85
2024-02-11T23:01:23.771Z,7.75
2024-02-11T23:03:51.547Z,7.57
2024-02-11T23:06:19.264Z,6.53
2024-02-11T23:08:50.128Z,9.50
2024-02-11T23:11:22.396Z,9.32
2024-02-11T23:13:52.716Z,6.88
2024-02-11T23:16:21.898Z,7.07
2024-02-11T23:18:49.623Z,9.52
2024-02-11T23:21:18.029Z,9.45
2024-02-11T23:23:47.239Z,8.18
2024-02-11T23:26:16.921Z,9.10
2024-02-11T23:28:44.595Z,7.50
2024-02-11T23:31:12.647Z,10.07
2024-02-11T23:33:41.019Z,11.80
2024-02-11T23:36:12.358Z,9.52
2024-02-11T23:38:40.793Z,11.18
2024-02-11T23:41:08.719Z,8.13
2024-02-11T23:43:37.681Z,7.32
2024-02-11T23:46:10.739Z,9.35
2024-02-11T23:48:40.887Z,7.22
2024-02-11T23:51:08.606Z,8.13
2024-02-11T23:53:39.341Z,6.40
2024-02-11T23:56:07.687Z,9.80
2024-02-11T23:58:36.674Z,9.65
